sensor_id;sensor_type;location;lat;lon;timestamp;pressure;altitude;pressure_sealevel;temperature;humidity
54592;BME280;40488;48.558;18.150;2023-05-06T00:00:08;99700.28;;;12.47;74.83
54592;BME280;40488;48.558;18.150;2023-05-06T00:02:42;99690.03;;;12.50;74.79
54592;BME280;40488;48.558;18.150;2023-05-06T00:05:10;99699.47;;;12.45;74.56
54592;BME280;40488;48.558;18.150;2023-05-06T00:07:40;99698.63;;;12.43;75.28
54592;BME280;40488;48.558;18.150;2023-05-06T00:10:09;99689.28;;;12.37;74.85
54592;BME280;40488;48.558;18.150;2023-05-06T00:12:38;99684.97;;;12.41;75.00
54592;BME280;40488;48.558;18.150;2023-05-06T00:15:09;99684.97;;;12.41;75.15
54592;BME280;40488;48.558;18.150;2023-05-06T00:17:38;99673.97;;;12.33;75.10
54592;BME280;40488;48.558;18.150;2023-05-06T00:20:08;99673.13;;;12.31;75.17
54592;BME280;40488;48.558;18.150;2023-05-06T00:22:37;99675.69;;;12.31;75.23
54592;BME280;40488;48.558;18.150;2023-05-06T00:25:07;99677.38;;;12.32;75.32
54592;BME280;40488;48.558;18.150;2023-05-06T00:27:36;99672.28;;;12.29;75.36
54592;BME280;40488;48.558;18.150;2023-05-06T00:30:08;99670.56;;;12.26;75.47
54592;BME280;40488;48.558;18.150;2023-05-06T00:32:37;99669.78;;;12.20;75.47
54592;BME280;40488;48.558;18.150;2023-05-06T00:35:07;99673.22;;;12.19;75.73
54592;BME280;40488;48.558;18.150;2023-05-06T00:37:36;99669.84;;;12.14;75.80
54592;BME280;40488;48.558;18.150;2023-05-06T00:40:06;99668.13;;;12.13;76.19
54592;BME280;40488;48.558;18.150;2023-05-06T00:42:36;99669.00;;;12.10;75.86
54592;BME280;40488;48.558;18.150;2023-05-06T00:45:06;99664.75;;;12.07;76.12
54592;BME280;40488;48.558;18.150;2023-05-06T00:47:37;99657.97;;;12.06;76.23
54592;BME280;40488;48.558;18.150;2023-05-06T00:50:06;99671.59;;;12.08;75.96
54592;BME280;40488;48.558;18.150;2023-05-06T00:52:36;99656.25;;;12.02;76.01
54592;BME280;40488;48.558;18.150;2023-05-06T00:55:05;99666.47;;;12.05;76.04
54592;BME280;40488;48.558;18.150;2023-05-06T00:57:35;99665.63;;;12.05;75.98
54592;BME280;40488;48.558;18.150;2023-05-06T01:00:05;99671.59;;;12.08;76.27
54592;BME280;40488;48.558;18.150;2023-05-06T01:02:34;99671.59;;;12.08;76.01
54592;BME280;40488;48.558;18.150;2023-05-06T01:05:30;99665.59;;;12.11;75.94
54592;BME280;40488;48.558;18.150;2023-05-06T01:08:07;99671.59;;;12.08;75.91
54592;BME280;40488;48.558;18.150;2023-05-06T01:10:45;99674.16;;;12.02;76.09
54592;BME280;40488;48.558;18.150;2023-05-06T01:13:22;99674.16;;;12.02;76.09
54592;BME280;40488;48.558;18.150;2023-05-06T01:15:54;99673.31;;;12.03;75.96
54592;BME280;40488;48.558;18.150;2023-05-06T01:18:25;99672.47;;;12.03;76.41
54592;BME280;40488;48.558;18.150;2023-05-06T01:20:56;99671.59;;;12.05;76.45
54592;BME280;40488;48.558;18.150;2023-05-06T01:23:49;99674.13;;;12.07;76.34
54592;BME280;40488;48.558;18.150;2023-05-06T01:26:18;99680.97;;;12.08;76.07
54592;BME280;40488;48.558;18.150;2023-05-06T01:28:47;99680.09;;;12.10;76.45
54592;BME280;40488;48.558;18.150;2023-05-06T01:31:23;99680.09;;;12.14;76.27
54592;BME280;40488;48.558;18.150;2023-05-06T01:34:11;99681.81;;;12.08;76.24
54592;BME280;40488;48.558;18.150;2023-05-06T01:36:52;99675.00;;;12.04;76.55
54592;BME280;40488;48.558;18.150;2023-05-06T01:39:28;99684.38;;;12.07;76.53
54592;BME280;40488;48.558;18.150;2023-05-06T01:42:00;99681.84;;;12.05;76.45
54592;BME280;40488;48.558;18.150;2023-05-06T01:44:32;99677.59;;;12.01;76.43
54592;BME280;40488;48.558;18.150;2023-05-06T01:47:02;99689.56;;;11.99;76.24
54592;BME280;40488;48.558;18.150;2023-05-06T01:49:33;99687.00;;;11.98;76.68
54592;BME280;40488;48.558;18.150;2023-05-06T01:52:02;99695.53;;;11.98;76.45
54592;BME280;40488;48.558;18.150;2023-05-06T01:54:32;99690.41;;;11.95;76.53
54592;BME280;40488;48.558;18.150;2023-05-06T01:57:01;99686.16;;;11.96;76.41
54592;BME280;40488;48.558;18.150;2023-05-06T01:59:31;99676.78;;;11.96;76.53
54592;BME280;40488;48.558;18.150;2023-05-06T02:02:00;99671.69;;;11.93;76.77
54592;BME280;40488;48.558;18.150;2023-05-06T02:04:30;99675.06;;;12.01;76.80
54592;BME280;40488;48.558;18.150;2023-05-06T02:06:59;99674.19;;;12.04;76.58
54592;BME280;40488;48.558;18.150;2023-05-06T02:09:27;99669.09;;;11.98;76.86
54592;BME280;40488;48.558;18.150;2023-05-06T02:12:02;99668.22;;;12.00;76.65
54592;BME280;40488;48.558;18.150;2023-05-06T02:14:31;99663.97;;;11.98;76.77
54592;BME280;40488;48.558;18.150;2023-05-06T02:17:02;99662.28;;;11.97;76.80
54592;BME280;40488;48.558;18.150;2023-05-06T02:19:31;99651.19;;;11.99;76.88
54592;BME280;40488;48.558;18.150;2023-05-06T02:22:00;99652.94;;;11.94;76.87
54592;BME280;40488;48.558;18.150;2023-05-06T02:24:29;99646.97;;;11.91;76.94
54592;BME280;40488;48.558;18.150;2023-05-06T02:26:58;99645.28;;;11.85;77.00
54592;BME280;40488;48.558;18.150;2023-05-06T02:29:30;99636.00;;;11.72;77.21
54592;BME280;40488;48.558;18.150;2023-05-06T02:31:59;99639.41;;;11.74;77.32
54592;BME280;40488;48.558;18.150;2023-05-06T02:34:28;99647.09;;;11.73;77.68
54592;BME280;40488;48.558;18.150;2023-05-06T02:36:57;99643.66;;;11.77;77.76
54592;BME280;40488;48.558;18.150;2023-05-06T02:39:26;99654.72;;;11.80;77.75
54592;BME280;40488;48.558;18.150;2023-05-06T02:41:55;99661.53;;;11.78;77.90
54592;BME280;40488;48.558;18.150;2023-05-06T02:44:23;99659.84;;;11.77;77.94
54592;BME280;40488;48.558;18.150;2023-05-06T02:47:05;99670.09;;;11.74;77.88
54592;BME280;40488;48.558;18.150;2023-05-06T02:49:34;99671.78;;;11.66;78.25
54592;BME280;40488;48.558;18.150;2023-05-06T02:52:03;99654.84;;;11.53;77.87
54592;BME280;40488;48.558;18.150;2023-05-06T02:54:32;99686.31;;;11.69;77.92
54592;BME280;40488;48.558;18.150;2023-05-06T02:57:01;99696.53;;;11.67;77.91
54592;BME280;40488;48.558;18.150;2023-05-06T02:59:30;99697.34;;;11.66;77.94
54592;BME280;40488;48.558;18.150;2023-05-06T03:01:59;99686.31;;;11.66;78.11
54592;BME280;40488;48.558;18.150;2023-05-06T03:04:29;99684.63;;;11.63;77.85
54592;BME280;40488;48.558;18.150;2023-05-06T03:06:58;99683.78;;;11.61;78.05
54592;BME280;40488;48.558;18.150;2023-05-06T03:09:27;99682.91;;;11.68;77.91
54592;BME280;40488;48.558;18.150;2023-05-06T03:11:56;99675.25;;;11.68;78.05
54592;BME280;40488;48.558;18.150;2023-05-06T03:14:25;99682.03;;;11.69;77.89
54592;BME280;40488;48.558;18.150;2023-05-06T03:16:54;99682.03;;;11.72;77.74
54592;BME280;40488;48.558;18.150;2023-05-06T03:19:24;99678.63;;;11.73;77.73
54592;BME280;40488;48.558;18.150;2023-05-06T03:21:54;99684.53;;;11.78;77.89
54592;BME280;40488;48.558;18.150;2023-05-06T03:24:24;99665.03;;;11.68;77.84
54592;BME280;40488;48.558;18.150;2023-05-06T03:26:53;99680.31;;;11.80;77.58
54592;BME280;40488;48.558;18.150;2023-05-06T03:29:24;99671.81;;;11.75;77.94
54592;BME280;40488;48.558;18.150;2023-05-06T03:31:54;99673.50;;;11.72;78.04
54592;BME280;40488;48.558;18.150;2023-05-06T03:34:25;99673.53;;;11.70;78.12
54592;BME280;40488;48.558;18.150;2023-05-06T03:36:57;99670.97;;;11.72;78.19
54592;BME280;40488;48.558;18.150;2023-05-06T03:39:27;99667.53;;;11.74;78.14
54592;BME280;40488;48.558;18.150;2023-05-06T03:41:58;99666.72;;;11.69;78.24
54592;BME280;40488;48.558;18.150;2023-05-06T03:44:27;99663.31;;;11.70;78.55
54592;BME280;40488;48.558;18.150;2023-05-06T03:46:57;99659.84;;;11.80;78.37
54592;BME280;40488;48.558;18.150;2023-05-06T03:49:27;99659.00;;;11.80;78.37
54592;BME280;40488;48.558;18.150;2023-05-06T03:51:58;99668.38;;;11.79;78.69
54592;BME280;40488;48.558;18.150;2023-05-06T03:54:27;99675.19;;;11.80;78.58
54592;BME280;40488;48.558;18.150;2023-05-06T03:56:56;99679.44;;;11.83;78.57
54592;BME280;40488;48.558;18.150;2023-05-06T03:59:25;99670.09;;;11.77;78.76
54592;BME280;40488;48.558;18.150;2023-05-06T04:01:56;99676.84;;;11.84;79.18
54592;BME280;40488;48.558;18.150;2023-05-06T04:04:25;99687.06;;;11.87;79.09
54592;BME280;40488;48.558;18.150;2023-05-06T04:06:55;99685.34;;;11.89;79.34
54592;BME280;40488;48.558;18.150;2023-05-06T04:09:25;99692.13;;;11.93;79.07
54592;BME280;40488;48.558;18.150;2023-05-06T04:11:55;99684.47;;;11.90;78.78
54592;BME280;40488;48.558;18.150;2023-05-06T04:14:25;99700.72;;;11.86;78.92
54592;BME280;40488;48.558;18.150;2023-05-06T04:16:55;99696.44;;;11.87;79.01
54592;BME280;40488;48.558;18.150;2023-05-06T04:19:24;99702.41;;;11.87;79.01
54592;BME280;40488;48.558;18.150;2023-05-06T04:21:53;99690.47;;;11.89;78.96
54592;BME280;40488;48.558;18.150;2023-05-06T04:24:22;99685.31;;;11.95;78.92
54592;BME280;40488;48.558;18.150;2023-05-06T04:26:52;99689.56;;;11.99;78.72
54592;BME280;40488;48.558;18.150;2023-05-06T04:29:21;99669.09;;;11.98;78.69
54592;BME280;40488;48.558;18.150;2023-05-06T04:31:59;99681.84;;;12.05;78.60
54592;BME280;40488;48.558;18.150;2023-05-06T04:34:32;99690.47;;;11.92;78.05
54592;BME280;40488;48.558;18.150;2023-05-06T04:37:04;99684.50;;;11.92;78.74
54592;BME280;40488;48.558;18.150;2023-05-06T04:39:45;99686.13;;;12.03;78.82
54592;BME280;40488;48.558;18.150;2023-05-06T04:42:17;99690.34;;;12.04;78.85
54592;BME280;40488;48.558;18.150;2023-05-06T04:45:04;99695.41;;;12.12;78.62
54592;BME280;40488;48.558;18.150;2023-05-06T04:47:35;99695.38;;;12.21;78.66
54592;BME280;40488;48.558;18.150;2023-05-06T04:50:05;99695.28;;;12.32;78.41
54592;BME280;40488;48.558;18.150;2023-05-06T04:52:34;99690.03;;;12.45;78.19
54592;BME280;40488;48.558;18.150;2023-05-06T04:55:04;99695.97;;;12.53;78.02
54592;BME280;40488;48.558;18.150;2023-05-06T04:57:38;99691.63;;;12.60;77.80
54592;BME280;40488;48.558;18.150;2023-05-06T05:00:07;99688.22;;;12.61;77.61
54592;BME280;40488;48.558;18.150;2023-05-06T05:02:38;99688.25;;;12.59;77.25
54592;BME280;40488;48.558;18.150;2023-05-06T05:05:07;99684.78;;;12.66;77.36
54592;BME280;40488;48.558;18.150;2023-05-06T05:07:38;99679.50;;;12.80;77.17
54592;BME280;40488;48.558;18.150;2023-05-06T05:10:08;99681.81;;;13.06;76.79
54592;BME280;40488;48.558;18.150;2023-05-06T05:12:39;99676.50;;;13.24;76.59
54592;BME280;40488;48.558;18.150;2023-05-06T05:15:09;99682.25;;;13.42;75.66
54592;BME280;40488;48.558;18.150;2023-05-06T05:17:38;99678.66;;;13.56;74.97
54592;BME280;40488;48.558;18.150;2023-05-06T05:20:08;99676.84;;;13.64;74.19
54592;BME280;40488;48.558;18.150;2023-05-06T05:22:37;99669.00;;;13.76;73.39
54592;BME280;40488;48.558;18.150;2023-05-06T05:25:07;99671.34;;;13.91;72.64
